Time;durP1;ratioP1;P1;durP2;ratioP2;P2;SDS_P1;SDS_P2;PMS_P1;PMS_P2;Temp;Humidity;BMP_temperature;BMP_pressure;BME280_temperature;BME280_humidity;BME280_pressure;Samples;Min_cycle;Max_cycle;Signal;HPM_P1;HPM_P2
2021/09/01 00:02:19;;;;;;;6.73;5.30;;;;;;;10.07;100.00;101407.31;5046224;28;20199;-73
2021/09/01 00:04:47;;;;;;;7.67;5.20;;;;;;;10.04;100.00;101411.69;5049942;28;20210;-73
2021/09/01 00:07:13;;;;;;;7.93;5.97;;;;;;;10.00;100.00;101417.78;5042339;28;20232;-72
2021/09/01 00:09:40;;;;;;;12.10;6.20;;;;;;;10.04;100.00;101413.41;5044580;28;20207;-72
2021/09/01 00:12:07;;;;;;;9.57;6.00;;;;;;;9.92;100.00;101418.75;5045888;28;20253;-73
2021/09/01 00:14:34;;;;;;;8.67;5.67;;;;;;;9.88;100.00;101417.91;5042886;28;20938;-72
2021/09/01 00:17:01;;;;;;;7.63;5.53;;;;;;;9.98;100.00;101419.53;5047595;28;20237;-72
2021/09/01 00:19:27;;;;;;;8.13;5.83;;;;;;;10.00;100.00;101425.59;5042041;28;20200;-72
2021/09/01 00:21:56;;;;;;;8.10;5.73;;;;;;;9.92;100.00;101423.94;5043481;28;20213;-73
2021/09/01 00:24:22;;;;;;;9.10;5.97;;;;;;;10.02;100.00;101421.22;5044462;28;20202;-72
2021/09/01 00:26:49;;;;;;;8.50;5.87;;;;;;;9.92;100.00;101419.63;5044458;28;20277;-72
2021/09/01 00:29:16;;;;;;;7.73;6.50;;;;;;;9.95;100.00;101421.31;5045612;28;20302;-72
2021/09/01 00:31:42;;;;;;;8.00;6.07;;;;;;;9.92;100.00;101419.63;5045724;28;20207;-72
2021/09/01 00:34:08;;;;;;;8.67;5.97;;;;;;;9.79;100.00;101418.88;5046896;28;20205;-72
2021/09/01 00:36:35;;;;;;;7.77;5.63;;;;;;;9.77;100.00;101425.00;5041068;28;20238;-72
2021/09/01 00:39:03;;;;;;;7.80;6.00;;;;;;;9.86;100.00;101430.94;5044984;28;20214;-72
2021/09/01 00:41:30;;;;;;;12.80;6.63;;;;;;;9.86;100.00;101430.94;5045802;28;20590;-72
2021/09/01 00:43:58;;;;;;;10.20;6.10;;;;;;;9.81;100.00;101435.34;5045403;28;20196;-72
2021/09/01 00:46:25;;;;;;;10.03;6.77;;;;;;;9.84;100.00;101437.91;5043920;28;20227;-72
2021/09/01 00:48:52;;;;;;;8.60;6.37;;;;;;;9.81;100.00;101437.94;5046447;28;20211;-72
2021/09/01 00:51:19;;;;;;;9.33;6.47;;;;;;;9.91;100.00;101443.94;5045042;28;20606;-72
2021/09/01 00:53:47;;;;;;;9.73;6.67;;;;;;;9.85;100.00;101438.81;5042453;28;20280;-72
2021/09/01 00:56:17;;;;;;;11.30;6.80;;;;;;;9.79;100.00;101439.69;5044398;28;20234;-72
2021/09/01 00:58:44;;;;;;;12.13;7.20;;;;;;;9.72;100.00;101432.84;5045270;28;20256;-72
2021/09/01 01:01:16;;;;;;;12.57;7.77;;;;;;;9.64;100.00;101443.34;5042952;28;20311;-72
2021/09/01 01:03:45;;;;;;;11.80;7.27;;;;;;;9.63;100.00;101433.78;5044150;28;20269;-72
2021/09/01 01:06:12;;;;;;;10.97;7.20;;;;;;;9.70;100.00;101439.81;5045826;28;20218;-72
2021/09/01 01:08:39;;;;;;;11.53;7.17;;;;;;;9.72;100.00;101443.25;5045434;28;20218;-72
2021/09/01 01:11:12;;;;;;;13.97;7.30;;;;;;;9.64;100.00;101443.34;5045332;28;20203;-72
2021/09/01 01:13:40;;;;;;;11.10;7.27;;;;;;;9.76;100.00;101439.75;5045733;28;20260;-72
2021/09/01 01:16:06;;;;;;;12.20;7.80;;;;;;;9.74;100.00;101445.84;5039253;28;20196;-72
2021/09/01 01:18:33;;;;;;;12.33;7.63;;;;;;;9.68;100.00;101433.75;5045612;28;20202;-73
2021/09/01 01:20:59;;;;;;;9.57;7.30;;;;;;;9.80;100.00;101443.19;5046583;28;20226;-72
2021/09/01 01:23:26;;;;;;;12.40;8.20;;;;;;;9.77;100.00;101444.06;5045422;28;20210;-72
2021/09/01 01:25:54;;;;;;;10.43;7.13;;;;;;;9.80;100.00;101440.59;5043226;28;20308;-72
2021/09/01 01:28:21;;;;;;;12.80;7.57;;;;;;;9.84;100.00;101450.94;5042967;28;20203;-72
2021/09/01 01:30:47;;;;;;;10.17;7.50;;;;;;;9.87;100.00;101452.66;5044305;28;20199;-73
2021/09/01 01:33:14;;;;;;;12.63;7.03;;;;;;;9.91;100.00;101445.69;5043796;28;20214;-72
2021/09/01 01:35:42;;;;;;;13.57;7.13;;;;;;;9.90;100.00;101454.38;5045600;28;20214;-72
2021/09/01 01:38:10;;;;;;;11.53;7.07;;;;;;;9.75;100.00;101447.59;5043172;28;20235;-73
2021/09/01 01:40:38;;;;;;;12.27;7.07;;;;;;;9.81;100.00;101447.50;5046347;28;20211;-72
2021/09/01 01:43:06;;;;;;;10.57;7.43;;;;;;;9.72;100.00;101445.00;5043638;28;20317;-72
2021/09/01 01:45:35;;;;;;;12.57;7.77;;;;;;;9.72;100.00;101445.84;5044104;28;20207;-72
2021/09/01 01:48:02;;;;;;;10.17;7.20;;;;;;;9.71;100.00;101443.25;5042833;28;20228;-72
2021/09/01 01:50:29;;;;;;;12.27;7.93;;;;;;;9.69;100.00;101450.22;5045512;28;20195;-72
2021/09/01 01:52:56;;;;;;;11.50;7.57;;;;;;;9.71;100.00;101446.75;5044291;28;20210;-72
2021/09/01 01:55:23;;;;;;;12.23;7.43;;;;;;;9.77;100.00;101451.03;5044125;28;20207;-72
2021/09/01 02:01:37;;;;;;;9.77;7.33;;;;;;;9.68;100.00;101446.78;5043790;28;20222;-72
2021/09/01 02:04:04;;;;;;;12.50;8.20;;;;;;;9.66;100.00;101454.59;5039605;28;20241;-72
2021/09/01 02:06:31;;;;;;;12.43;7.70;;;;;;;9.69;100.00;101456.28;5043330;28;20218;-72
2021/09/01 02:08:57;;;;;;;12.83;8.13;;;;;;;9.73;100.00;101441.53;5044949;28;20223;-72
2021/09/01 02:11:23;;;;;;;11.90;7.63;;;;;;;9.65;100.00;101449.41;5041823;28;20195;-72
2021/09/01 02:13:50;;;;;;;11.17;7.63;;;;;;;9.64;100.00;101445.09;5042878;28;20676;-73
2021/09/01 02:16:16;;;;;;;10.97;7.53;;;;;;;9.63;100.00;101453.75;5045291;28;20223;-73
2021/09/01 02:18:44;;;;;;;10.70;7.97;;;;;;;9.63;100.00;101446.81;5048120;28;20636;-73
2021/09/01 02:21:10;;;;;;;11.03;6.93;;;;;;;9.59;100.00;101455.53;5047754;28;20344;-73
2021/09/01 02:23:37;;;;;;;13.03;7.93;;;;;;;9.59;100.00;101449.47;5048125;28;20211;-73
2021/09/01 02:26:03;;;;;;;11.63;7.57;;;;;;;9.59;100.00;101444.25;5044664;28;20198;-73
2021/09/01 02:28:30;;;;;;;11.97;7.83;;;;;;;9.59;100.00;101449.47;5042710;28;20630;-73
2021/09/01 02:30:56;;;;;;;12.77;7.07;;;;;;;9.54;100.00;101440.84;5046431;28;20203;-73
2021/09/01 02:33:22;;;;;;;12.40;8.10;;;;;;;9.56;100.00;101445.13;5047438;28;20213;-72
2021/09/01 02:35:50;;;;;;;11.50;7.27;;;;;;;9.54;100.00;101436.47;5046299;28;20738;-73
2021/09/01 02:38:17;;;;;;;13.90;7.67;;;;;;;9.55;100.00;101443.44;5047459;28;20222;-73
2021/09/01 02:40:43;;;;;;;12.97;7.70;;;;;;;9.58;100.00;101443.38;5045044;28;20231;-72
2021/09/01 02:43:09;;;;;;;11.53;8.00;;;;;;;9.69;100.00;101440.66;5049613;28;20296;-73
2021/09/01 02:45:36;;;;;;;12.00;8.27;;;;;;;9.68;100.00;101444.16;5049211;28;20222;-73
2021/09/01 02:48:03;;;;;;;14.43;8.30;;;;;;;9.71;100.00;101438.94;5047834;28;20227;-73
2021/09/01 02:50:30;;;;;;;12.90;8.10;;;;;;;9.73;100.00;101426.75;5046663;28;20203;-73
2021/09/01 02:52:57;;;;;;;14.90;8.17;;;;;;;9.71;100.00;101431.13;5045270;28;20210;-73
2021/09/01 02:55:24;;;;;;;14.63;8.97;;;;;;;9.79;100.00;101423.22;5045282;28;20198;-73
2021/09/01 02:57:50;;;;;;;10.50;7.67;;;;;;;9.82;100.00;101421.44;5047271;28;20227;-73
2021/09/01 03:00:17;;;;;;;12.77;8.30;;;;;;;9.78;100.00;101427.59;5044564;28;20203;-73
2021/09/01 03:02:43;;;;;;;10.53;7.73;;;;;;;9.86;100.00;101423.13;5044080;28;20199;-73
2021/09/01 03:05:10;;;;;;;12.47;8.23;;;;;;;9.93;100.00;101423.09;5047855;28;20199;-72
2021/09/01 03:07:37;;;;;;;11.33;7.87;;;;;;;9.91;100.00;101428.31;5043793;28;20227;-72
2021/09/01 03:10:05;;;;;;;9.83;7.27;;;;;;;9.93;100.00;101423.94;5049626;28;20211;-73
2021/09/01 03:12:32;;;;;;;12.53;7.83;;;;;;;9.98;100.00;101423.91;5049176;28;20783;-73
2021/09/01 03:14:58;;;;;;;11.03;7.43;;;;;;;9.86;100.00;101417.94;5048819;28;20207;-72
2021/09/01 03:17:25;;;;;;;10.50;6.77;;;;;;;9.83;100.00;101425.78;5043364;28;20220;-73
2021/09/01 03:19:51;;;;;;;10.63;5.87;;;;;;;9.91;100.00;101417.88;5047152;28;20218;-73
2021/09/01 03:22:17;;;;;;;12.80;7.90;;;;;;;9.88;100.00;101424.88;5047988;28;20215;-73
2021/09/01 03:24:44;;;;;;;9.43;6.73;;;;;;;9.93;100.00;101421.34;5048574;28;20195;-73
2021/09/01 03:27:12;;;;;;;10.63;6.63;;;;;;;10.00;100.00;101411.72;5047259;28;20227;-73
2021/09/01 03:29:38;;;;;;;10.40;7.47;;;;;;;9.85;100.00;101421.44;5043957;28;20196;-73
2021/09/01 03:32:05;;;;;;;8.90;6.80;;;;;;;9.84;100.00;101424.03;5048483;28;20529;-73
2021/09/01 03:34:31;;;;;;;9.70;6.23;;;;;;;9.73;100.00;101418.94;5048787;28;20206;-72
2021/09/01 03:36:58;;;;;;;9.77;6.30;;;;;;;9.68;100.00;101412.91;5047412;28;20223;-72
2021/09/01 03:39:24;;;;;;;9.10;6.17;;;;;;;9.63;100.00;101419.91;5046582;28;20467;-73
2021/09/01 03:41:50;;;;;;;9.33;6.63;;;;;;;9.61;100.00;101416.47;5045337;28;20224;-73
2021/09/01 03:44:18;;;;;;;11.17;6.57;;;;;;;9.66;100.00;101419.88;5047910;28;20195;-73
2021/09/01 03:46:45;;;;;;;11.40;6.47;;;;;;;9.63;100.00;101418.16;5045147;28;20230;-73
2021/09/01 03:49:16;;;;;;;11.57;7.23;;;;;;;9.67;100.00;101419.00;5043089;28;20203;-73
2021/09/01 03:51:43;;;;;;;10.60;6.80;;;;;;;9.71;100.00;101427.63;5046647;28;20223;-73
2021/09/01 03:54:09;;;;;;;10.47;6.60;;;;;;;9.79;100.00;101424.06;5047246;28;20202;-73
2021/09/01 03:56:36;;;;;;;9.83;7.10;;;;;;;9.80;100.00;101430.16;5046943;28;20798;-73
2021/09/01 03:59:03;;;;;;;10.47;7.23;;;;;;;9.91;100.00;101435.28;5046910;28;20203;-73
2021/09/01 04:01:32;;;;;;;9.60;6.47;;;;;;;9.92;100.00;101431.75;5045664;28;20621;-72
2021/09/01 04:03:58;;;;;;;9.87;6.67;;;;;;;9.90;100.00;101431.78;5047104;28;20637;-72
2021/09/01 04:06:25;;;;;;;8.93;6.50;;;;;;;9.88;100.00;101420.50;5047309;28;20215;-73
2021/09/01 04:08:52;;;;;;;8.00;6.23;;;;;;;9.95;100.00;101430.00;5048608;28;20210;-72
2021/09/01 04:11:18;;;;;;;9.50;6.70;;;;;;;9.98;100.00;101429.97;5047008;28;20236;-72
2021/09/01 04:13:47;;;;;;;10.93;7.13;;;;;;;9.99;100.00;101438.63;5045016;28;20211;-72
2021/09/01 04:16:14;;;;;;;9.10;7.27;;;;;;;10.02;100.00;101438.59;5043953;28;20241;-73
2021/09/01 04:18:42;;;;;;;11.27;7.20;;;;;;;10.02;100.00;101446.41;5041015;28;20633;-72
2021/09/01 04:21:08;;;;;;;11.50;6.80;;;;;;;9.96;100.00;101452.56;5046388;28;20204;-72
2021/09/01 04:23:35;;;;;;;10.67;7.20;;;;;;;9.97;100.00;101458.63;5045288;28;20210;-72
2021/09/01 04:26:01;;;;;;;9.97;6.60;;;;;;;9.98;100.00;101461.22;5047027;28;20206;-72
2021/09/01 04:28:28;;;;;;;12.67;7.43;;;;;;;9.98;100.00;101458.63;5044776;28;20229;-72
2021/09/01 04:30:54;;;;;;;8.63;6.77;;;;;;;10.00;100.00;101469.88;5045660;28;20282;-73
2021/09/01 04:33:20;;;;;;;10.90;7.20;;;;;;;10.09;100.00;101465.47;5041897;28;20206;-73
2021/09/01 04:35:48;;;;;;;10.33;7.57;;;;;;;10.07;100.00;101468.09;5044477;28;20653;-72
2021/09/01 04:38:15;;;;;;;10.73;6.97;;;;;;;10.11;100.00;101477.59;5038842;28;20330;-72
2021/09/01 04:40:41;;;;;;;13.70;7.67;;;;;;;10.18;100.00;101474.06;5041958;28;20448;-73
2021/09/01 04:43:08;;;;;;;13.80;8.23;;;;;;;10.17;100.00;101467.13;5045235;28;20211;-72
2021/09/01 04:45:35;;;;;;;10.87;7.13;;;;;;;10.17;100.00;101474.06;5043189;28;20634;-72
2021/09/01 04:48:01;;;;;;;14.77;8.27;;;;;;;10.19;100.00;101472.31;5042860;28;20242;-72
2021/09/01 04:50:28;;;;;;;15.03;8.30;;;;;;;10.24;100.00;101481.78;5045921;28;20210;-72
2021/09/01 04:52:56;;;;;;;12.17;7.90;;;;;;;10.28;100.00;101480.03;5044665;28;20210;-72
2021/09/01 04:55:22;;;;;;;11.90;8.07;;;;;;;10.25;100.00;101467.00;5044005;28;20590;-72
2021/09/01 04:57:49;;;;;;;12.33;8.00;;;;;;;10.28;100.00;101474.81;5045345;28;20234;-72
2021/09/01 05:00:15;;;;;;;14.37;8.77;;;;;;;10.32;100.00;101471.31;5046090;28;20624;-72
2021/09/01 05:02:42;;;;;;;13.50;8.73;;;;;;;10.38;100.00;101476.47;5045587;28;20219;-73
2021/09/01 05:05:09;;;;;;;11.90;8.10;;;;;;;10.46;100.00;101478.13;5046739;28;20698;-72
2021/09/01 05:07:36;;;;;;;13.10;9.43;;;;;;;10.52;100.00;101476.31;5036563;28;20224;-72
2021/09/01 05:10:04;;;;;;;15.57;9.80;;;;;;;10.59;100.00;101474.50;5045078;28;20213;-72
2021/09/01 05:12:31;;;;;;;14.60;8.83;;;;;;;10.70;100.00;101476.94;5043146;28;20302;-72
2021/09/01 05:14:58;;;;;;;14.50;10.03;;;;;;;10.76;100.00;101472.53;5045688;28;20628;-72
2021/09/01 05:17:24;;;;;;;16.53;10.17;;;;;;;10.87;100.00;101472.38;5055676;28;20325;-72
2021/09/01 05:19:51;;;;;;;14.83;9.67;;;;;;;10.97;100.00;101465.25;5043181;28;20208;-72
2021/09/01 05:22:19;;;;;;;17.23;10.93;;;;;;;11.07;100.00;101466.84;5045459;28;20254;-72
2021/09/01 05:24:56;;;;;;;17.30;10.60;;;;;;;11.13;100.00;101468.50;5042123;28;20206;-73
2021/09/01 05:27:26;;;;;;;13.47;9.33;;;;;;;11.23;100.00;101464.03;5061858;28;20316;-73
2021/09/01 05:29:52;;;;;;;14.80;9.63;;;;;;;11.30;100.00;101470.88;5042160;28;20207;-73
2021/09/01 05:32:21;;;;;;;12.83;9.23;;;;;;;11.35;100.00;101467.28;5044503;28;20191;-72
2021/09/01 05:34:50;;;;;;;10.77;7.70;;;;;;;11.40;100.00;101476.78;5039266;28;20216;-72
2021/09/01 05:37:17;;;;;;;16.17;8.47;;;;;;;11.40;100.00;101477.69;5043528;28;20224;-72
2021/09/01 05:39:45;;;;;;;11.87;7.70;;;;;;;11.50;100.00;101481.88;5044071;28;20724;-73
2021/09/01 05:42:15;;;;;;;11.93;7.73;;;;;;;11.58;100.00;101483.50;5044565;28;20309;-73
2021/09/01 05:44:43;;;;;;;11.27;7.50;;;;;;;11.67;100.00;101486.78;5044651;28;20296;-73
2021/09/01 05:47:10;;;;;;;13.40;7.50;;;;;;;11.72;100.00;101489.34;5044112;28;20315;-72
2021/09/01 05:49:37;;;;;;;9.93;7.13;;;;;;;11.79;100.00;101487.50;5040125;28;20555;-73
2021/09/01 05:52:05;;;;;;;12.33;7.97;;;;;;;11.79;100.00;101487.50;5037200;28;20207;-72
2021/09/01 05:54:33;;;;;;;9.90;6.90;;;;;;;11.80;100.00;101495.28;5044253;28;20227;-72
2021/09/01 05:57:07;;;;;;;9.93;6.77;;;;;;;11.81;100.00;101488.31;5044723;28;20319;-73
2021/09/01 05:59:39;;;;;;;9.83;6.60;;;;;;;11.80;100.00;101494.41;5043203;28;20218;-72
2021/09/01 06:02:12;;;;;;;10.67;7.37;;;;;;;11.83;100.00;101495.22;5043960;28;20654;-73
2021/09/01 06:04:39;;;;;;;9.70;6.70;;;;;;;11.84;100.00;101502.19;5042333;28;20206;-73
2021/09/01 06:07:12;;;;;;;9.70;6.80;;;;;;;11.85;100.00;101496.06;5038715;28;20226;-73
2021/09/01 06:09:42;;;;;;;10.27;7.10;;;;;;;11.83;100.00;101505.69;5040099;28;20707;-73
2021/09/01 06:12:09;;;;;;;9.80;6.83;;;;;;;11.85;100.00;101508.25;5044842;28;20688;-72
2021/09/01 06:14:36;;;;;;;10.63;6.80;;;;;;;11.85;100.00;101510.88;5041952;28;20271;-73
2021/09/01 06:17:02;;;;;;;10.93;7.23;;;;;;;11.87;100.00;101512.59;5045983;28;20720;-73
2021/09/01 06:19:31;;;;;;;9.50;6.70;;;;;;;11.90;100.00;101516.88;5044001;28;20210;-72
2021/09/01 06:21:58;;;;;;;10.43;7.07;;;;;;;11.99;100.00;101508.06;5040984;28;20424;-72
2021/09/01 06:24:25;;;;;;;10.27;7.20;;;;;;;12.03;100.00;101505.38;5042420;28;20292;-73
2021/09/01 06:26:51;;;;;;;8.43;6.87;;;;;;;12.05;100.00;101506.19;5040691;28;20239;-73
2021/09/01 06:29:18;;;;;;;12.10;7.77;;;;;;;12.10;100.00;101504.38;5046183;28;20211;-72
2021/09/01 06:31:44;;;;;;;9.97;7.03;;;;;;;12.08;100.00;101510.50;5044248;28;20195;-72
2021/09/01 06:34:11;;;;;;;9.57;6.97;;;;;;;12.10;100.00;101512.22;5043119;28;20225;-73
2021/09/01 06:36:38;;;;;;;9.30;6.90;;;;;;;12.13;100.00;101508.66;5038431;28;20234;-72
2021/09/01 06:39:05;;;;;;;9.40;6.77;;;;;;;12.27;100.00;101508.41;5043513;28;20324;-73
2021/09/01 06:41:31;;;;;;;9.60;7.27;;;;;;;12.42;100.00;101515.97;5041579;28;20828;-73
2021/09/01 06:43:58;;;;;;;10.17;7.17;;;;;;;12.56;100.00;101520.03;5041716;28;20207;-73
2021/09/01 06:46:24;;;;;;;10.33;7.30;;;;;;;12.64;100.00;101512.91;5036887;28;20227;-72
2021/09/01 06:48:51;;;;;;;10.27;7.30;;;;;;;12.86;100.00;101515.94;5040670;28;20221;-72
2021/09/01 06:51:17;;;;;;;13.00;7.30;;;;;;;12.95;100.00;101526.22;5038044;28;20299;-73
2021/09/01 06:53:45;;;;;;;10.00;6.90;;;;;;;13.07;100.00;101525.94;5042732;28;20239;-72
2021/09/01 06:56:11;;;;;;;8.47;6.27;;;;;;;13.23;100.00;101528.22;5036870;28;20207;-73
2021/09/01 06:58:38;;;;;;;8.83;5.90;;;;;;;13.30;100.00;101521.94;5043830;28;20306;-73
2021/09/01 07:01:04;;;;;;;8.40;6.07;;;;;;;13.33;100.00;101526.28;5042897;28;20590;-73
2021/09/01 07:03:31;;;;;;;9.67;6.53;;;;;;;13.43;100.00;101520.78;5043372;28;20214;-73
2021/09/01 07:05:57;;;;;;;8.20;6.27;;;;;;;13.57;100.00;101522.22;5058620;28;20294;-73
2021/09/01 07:08:23;;;;;;;8.43;6.40;;;;;;;13.67;100.00;101520.22;5048110;28;20413;-73
2021/09/01 07:10:52;;;;;;;7.33;5.60;;;;;;;13.79;100.00;101522.53;5043501;28;20285;-73
2021/09/01 07:13:19;;;;;;;8.77;6.20;;;;;;;13.86;100.00;101533.72;5045645;28;20199;-73
2021/09/01 07:15:45;;;;;;;8.03;5.30;;;;;;;14.02;100.00;101533.31;5044308;28;20214;-73
2021/09/01 07:18:12;;;;;;;10.90;6.27;;;;;;;14.12;100.00;101536.53;5047184;28;20219;-73
2021/09/01 07:20:39;;;;;;;6.43;5.17;;;;;;;14.16;100.00;101534.72;5045743;28;20217;-73
2021/09/01 07:23:06;;;;;;;9.93;5.77;;;;;;;14.23;100.00;101538.00;5046292;28;20222;-73
2021/09/01 07:25:33;;;;;;;7.57;5.83;;;;;;;14.32;100.00;101532.53;5046818;28;20226;-72
2021/09/01 07:28:02;;;;;;;8.70;5.53;;;;;;;14.45;100.00;101540.91;5047014;28;20579;-72
2021/09/01 07:30:28;;;;;;;6.73;5.40;;;;;;;14.53;100.00;101541.56;5042866;28;20227;-73
2021/09/01 07:32:54;;;;;;;7.83;5.40;;;;;;;14.63;100.00;101545.66;5043014;28;20206;-73
2021/09/01 07:35:22;;;;;;;7.27;5.67;;;;;;;14.78;100.00;101541.75;5044490;28;20309;-73
2021/09/01 07:37:50;;;;;;;8.47;5.73;;;;;;;14.79;100.00;101547.84;5044279;28;20226;-73
2021/09/01 07:40:19;;;;;;;7.67;5.53;;;;;;;14.89;100.00;101547.53;5045518;28;20237;-73
2021/09/01 07:42:46;;;;;;;9.10;5.80;;;;;;;15.05;100.00;101544.47;5042561;28;20239;-73
2021/09/01 07:45:15;;;;;;;6.67;5.13;;;;;;;15.24;100.00;101548.25;5047074;28;20201;-73
2021/09/01 07:47:47;;;;;;;6.90;5.60;;;;;;;15.33;99.68;101553.22;5044818;28;20225;-74
2021/09/01 07:50:14;;;;;;;6.70;5.43;;;;;;;15.46;99.70;101548.44;5039662;28;20203;-73
2021/09/01 07:52:40;;;;;;;7.33;5.33;;;;;;;15.68;98.90;101560.88;5043018;28;20206;-73
2021/09/01 07:55:07;;;;;;;7.83;5.13;;;;;;;15.85;99.58;101563.84;5046059;28;20207;-72
2021/09/01 07:57:34;;;;;;;6.67;5.17;;;;;;;16.11;96.65;101571.78;5042342;28;20243;-72
2021/09/01 08:00:00;;;;;;;5.23;4.47;;;;;;;16.18;94.67;101583.78;5044548;28;20217;-72
2021/09/01 08:02:28;;;;;;;7.03;4.93;;;;;;;16.37;94.13;101584.88;5041319;28;20207;-73
2021/09/01 08:04:54;;;;;;;5.93;4.27;;;;;;;16.47;93.33;101581.00;5044360;28;20207;-73
2021/09/01 08:07:21;;;;;;;5.93;4.00;;;;;;;16.51;92.03;101576.50;5045804;28;20226;-73
2021/09/01 08:09:47;;;;;;;7.20;4.30;;;;;;;16.42;91.72;101585.56;5044140;28;20211;-73
2021/09/01 08:12:13;;;;;;;5.87;4.27;;;;;;;16.52;90.67;101593.16;5045396;28;20894;-72
2021/09/01 08:14:40;;;;;;;8.27;5.07;;;;;;;16.70;91.61;101581.09;5043658;28;20207;-73
2021/09/01 08:17:06;;;;;;;4.53;3.77;;;;;;;16.78;90.08;101582.53;5045065;28;20227;-73
2021/09/01 08:19:34;;;;;;;7.43;4.50;;;;;;;16.86;90.62;101584.06;5045753;28;20207;-73
2021/09/01 08:22:01;;;;;;;6.80;4.07;;;;;;;16.90;90.17;101593.56;5042770;28;20674;-73
2021/09/01 08:24:27;;;;;;;5.07;4.10;;;;;;;16.93;91.17;101590.81;5046735;28;20203;-73
2021/09/01 08:26:53;;;;;;;6.27;4.07;;;;;;;16.91;88.67;101596.13;5044362;28;20223;-72
2021/09/01 08:29:20;;;;;;;8.70;4.60;;;;;;;16.96;88.22;101593.34;5044439;28;20215;-73
2021/09/01 08:31:46;;;;;;;9.03;4.40;;;;;;;16.99;87.69;101602.00;5042967;28;20207;-73
2021/09/01 08:34:13;;;;;;;6.43;4.20;;;;;;;17.17;89.23;101594.31;5044205;28;20203;-74
2021/09/01 08:36:43;;;;;;;6.57;4.40;;;;;;;17.19;88.17;101600.38;5042587;28;20234;-73
2021/09/01 08:39:09;;;;;;;6.33;4.60;;;;;;;17.11;88.38;101613.81;5043139;28;20269;-73
2021/09/01 08:41:37;;;;;;;7.60;4.23;;;;;;;17.22;87.11;101621.34;5041472;28;20207;-72
2021/09/01 08:44:04;;;;;;;5.47;3.90;;;;;;;17.26;87.80;101615.03;5045176;28;20219;-73
2021/09/01 08:46:31;;;;;;;5.30;3.73;;;;;;;17.39;87.83;101620.69;5044438;28;20231;-73
2021/09/01 08:49:00;;;;;;;5.03;3.67;;;;;;;17.49;87.03;101623.81;5040949;28;20203;-73
2021/09/01 08:51:26;;;;;;;4.67;3.67;;;;;;;17.62;86.67;101618.91;5040995;28;20241;-73
2021/09/01 08:53:56;;;;;;;5.47;3.87;;;;;;;17.57;86.35;101627.88;5042443;28;20196;-73
2021/09/01 08:56:23;;;;;;;5.87;3.70;;;;;;;17.62;87.49;101616.28;5042305;28;20252;-72
2021/09/01 08:58:50;;;;;;;4.60;3.47;;;;;;;17.65;86.56;101614.38;5049153;28;20190;-73
2021/09/01 09:01:49;;;;;;;5.50;3.93;;;;;;;17.85;85.84;101620.63;5043968;28;20199;-73
2021/09/01 09:04:18;;;;;;;6.53;3.90;;;;;;;17.90;85.33;101624.81;5037619;28;20333;-73
2021/09/01 09:06:50;;;;;;;5.73;4.00;;;;;;;17.77;84.01;101623.59;5042398;28;20223;-73
2021/09/01 09:09:19;;;;;;;5.57;4.00;;;;;;;17.89;85.70;101624.91;5046186;28;20198;-73
2021/09/01 09:11:46;;;;;;;5.80;3.87;;;;;;;17.83;85.01;101630.38;5041644;28;20209;-73
2021/09/01 09:14:17;;;;;;;9.27;4.10;;;;;;;17.85;82.82;101634.66;5045670;28;20210;-73
2021/09/01 09:16:45;;;;;;;4.90;3.73;;;;;;;18.11;83.27;101635.41;5044130;28;20238;-73
2021/09/01 09:19:12;;;;;;;5.43;3.90;;;;;;;18.30;81.65;101640.78;5040144;28;20605;-73
2021/09/01 09:21:39;;;;;;;5.50;3.80;;;;;;;18.39;82.53;101631.59;5045861;28;20207;-73
2021/09/01 09:24:20;;;;;;;6.93;4.33;;;;;;;18.27;83.89;101625.91;5042966;28;20217;-73
2021/09/01 09:26:47;;;;;;;6.13;4.20;;;;;;;18.34;82.75;101631.78;5042788;28;20222;-73
2021/09/01 09:29:15;;;;;;;4.60;3.87;;;;;;;18.36;83.04;101624.66;5042338;28;20199;-73
2021/09/01 09:31:43;;;;;;;6.57;4.33;;;;;;;18.54;80.95;101623.88;5040452;28;20210;-73
2021/09/01 09:34:12;;;;;;;5.77;4.07;;;;;;;18.38;82.30;101625.47;5040276;28;20520;-73
2021/09/01 09:36:39;;;;;;;5.77;4.10;;;;;;;18.35;84.09;101622.97;5042089;28;20243;-73
2021/09/01 09:39:06;;;;;;;4.77;3.87;;;;;;;18.30;80.96;101620.50;5044126;28;20294;-74
2021/09/01 09:41:34;;;;;;;5.80;4.10;;;;;;;18.56;82.79;101621.19;5044298;28;20210;-73
2021/09/01 09:44:03;;;;;;;6.20;4.50;;;;;;;18.57;81.78;101624.66;5042522;28;20211;-73
2021/09/01 09:46:31;;;;;;;5.40;3.83;;;;;;;18.47;82.19;101625.06;5041653;28;20227;-73
2021/09/01 09:49:05;;;;;;;7.80;4.00;;;;;;;18.69;82.17;101616.19;5045008;28;20215;-73
2021/09/01 09:51:40;;;;;;;7.60;4.27;;;;;;;18.84;78.77;101622.63;5042399;28;20206;-73
2021/09/01 09:54:18;;;;;;;5.27;3.90;;;;;;;18.93;80.43;101616.94;5043635;28;20194;-75
2021/09/01 09:56:47;;;;;;;7.20;3.80;;;;;;;18.92;79.05;101634.53;5037329;28;20230;-73
2021/09/01 09:59:18;;;;;;;4.93;3.60;;;;;;;18.96;78.01;101622.06;5043334;28;20216;-72
2021/09/01 10:01:45;;;;;;;4.03;3.60;;;;;;;19.14;77.02;101625.66;5021521;28;20951;-72
2021/09/01 10:04:12;;;;;;;5.57;3.93;;;;;;;19.02;77.44;101626.22;5019733;28;20220;-73
2021/09/01 10:06:40;;;;;;;5.57;4.13;;;;;;;18.91;78.62;101630.19;5020585;28;20226;-73
2021/09/01 10:09:07;;;;;;;9.23;4.30;;;;;;;18.91;76.73;101630.19;5023059;28;20200;-73
2021/09/01 10:11:35;;;;;;;6.07;3.90;;;;;;;18.91;78.02;101632.84;5024860;28;20254;-73
2021/09/01 10:14:03;;;;;;;6.00;4.00;;;;;;;19.30;79.34;101628.44;5021463;28;20645;-73
2021/09/01 10:16:32;;;;;;;6.37;4.23;;;;;;;19.29;75.87;101635.53;5024174;28;20225;-73
2021/09/01 10:19:04;;;;;;;5.20;3.97;;;;;;;19.01;76.99;101633.25;5023166;28;20490;-73
2021/09/01 10:21:33;;;;;;;5.60;3.87;;;;;;;19.10;77.27;101632.88;5023107;28;20202;-72
2021/09/01 10:24:17;;;;;;;6.03;4.10;;;;;;;19.23;76.99;101621.72;5024039;28;20704;-72
2021/09/01 10:26:59;;;;;;;5.33;4.20;;;;;;;19.26;76.68;101616.28;5018293;28;20240;-73
2021/09/01 10:29:40;;;;;;;6.17;4.17;;;;;;;19.30;75.87;101633.72;5019004;28;20873;-73
2021/09/01 10:32:25;;;;;;;7.10;4.27;;;;;;;19.49;76.60;101631.94;5022512;28;20196;-73
2021/09/01 10:35:32;;;;;;;5.33;3.77;;;;;;;19.79;74.27;101631.41;5022479;28;20208;-72
2021/09/01 10:38:04;;;;;;;6.03;4.03;;;;;;;19.94;75.81;101629.78;5024685;28;20227;-73
2021/09/01 10:41:04;;;;;;;7.63;4.20;;;;;;;19.72;73.78;101634.38;5027134;28;20700;-72
2021/09/01 10:43:31;;;;;;;5.10;4.00;;;;;;;19.77;74.87;101635.03;5021744;28;20277;-72
2021/09/01 10:45:59;;;;;;;6.00;4.27;;;;;;;19.91;74.76;101632.59;5027294;28;20204;-72
2021/09/01 10:48:26;;;;;;;6.73;4.10;;;;;;;19.93;73.78;101630.72;5026971;28;20207;-72
2021/09/01 10:50:53;;;;;;;5.77;3.87;;;;;;;20.00;73.50;101636.59;5026108;28;20576;-72
2021/09/01 10:53:23;;;;;;;5.73;4.37;;;;;;;19.96;74.71;101627.06;5025983;28;20299;-72
2021/09/01 10:55:52;;;;;;;5.73;4.30;;;;;;;19.79;70.04;101631.41;5027587;28;20203;-72
2021/09/01 10:58:24;;;;;;;6.40;3.93;;;;;;;19.77;72.28;101630.63;5026688;28;20220;-72
2021/09/01 11:00:54;;;;;;;5.67;3.77;;;;;;;19.76;72.02;101636.00;5026055;28;20302;-72
2021/09/01 11:03:34;;;;;;;5.17;3.83;;;;;;;19.76;71.88;101636.00;5027180;28;20720;-72
2021/09/01 11:06:19;;;;;;;5.33;4.10;;;;;;;19.80;72.24;101634.91;5024622;28;20353;-72
2021/09/01 11:09:09;;;;;;;4.93;3.80;;;;;;;20.05;71.16;101642.47;5028052;28;20236;-72
2021/09/01 11:11:47;;;;;;;4.73;3.63;;;;;;;19.97;72.79;101640.22;5024326;28;20608;-72
2021/09/01 11:14:15;;;;;;;5.70;4.13;;;;;;;20.08;72.33;101647.63;5021345;28;20291;-72
2021/09/01 11:16:42;;;;;;;5.83;4.23;;;;;;;20.12;71.74;101648.31;5025674;28;20422;-72
2021/09/01 11:19:11;;;;;;;5.33;3.87;;;;;;;20.16;71.82;101644.63;5026032;28;20212;-72
2021/09/01 11:21:43;;;;;;;5.77;4.27;;;;;;;20.19;72.12;101647.97;5026285;28;20206;-72
2021/09/01 11:24:11;;;;;;;4.93;3.37;;;;;;;20.29;72.24;101647.50;5025479;28;20790;-72
2021/09/01 11:26:38;;;;;;;6.13;3.70;;;;;;;20.21;71.46;101642.56;5026575;28;20224;-72
2021/09/01 11:29:06;;;;;;;6.23;4.00;;;;;;;20.28;71.12;101651.94;5027142;28;20204;-72